sensor_id;sensor_type;location;lat;lon;timestamp;temperature;humidity
25450;DHT22;13371;52.080;5.624;2022-07-29T00:02:21;18.80;79.00
25450;DHT22;13371;52.080;5.624;2022-07-29T00:04:47;18.80;78.90
25450;DHT22;13371;52.080;5.624;2022-07-29T00:07:12;18.50;80.40
25450;DHT22;13371;52.080;5.624;2022-07-29T00:09:38;18.50;79.90
25450;DHT22;13371;52.080;5.624;2022-07-29T00:12:04;18.70;79.20
25450;DHT22;13371;52.080;5.624;2022-07-29T00:14:30;18.30;80.60
25450;DHT22;13371;52.080;5.624;2022-07-29T00:16:56;18.40;80.40
25450;DHT22;13371;52.080;5.624;2022-07-29T00:19:21;18.50;80.30
25450;DHT22;13371;52.080;5.624;2022-07-29T00:21:47;18.30;81.00
25450;DHT22;13371;52.080;5.624;2022-07-29T00:24:12;18.30;81.20
25450;DHT22;13371;52.080;5.624;2022-07-29T00:26:38;18.30;81.00
25450;DHT22;13371;52.080;5.624;2022-07-29T00:29:04;18.40;80.70
25450;DHT22;13371;52.080;5.624;2022-07-29T00:31:30;17.90;82.30
25450;DHT22;13371;52.080;5.624;2022-07-29T00:33:55;17.90;82.60
25450;DHT22;13371;52.080;5.624;2022-07-29T00:36:21;18.00;82.10
25450;DHT22;13371;52.080;5.624;2022-07-29T00:38:51;18.30;81.00
25450;DHT22;13371;52.080;5.624;2022-07-29T00:41:17;18.60;80.00
25450;DHT22;13371;52.080;5.624;2022-07-29T00:43:43;18.70;79.90
25450;DHT22;13371;52.080;5.624;2022-07-29T00:46:09;18.60;80.00
25450;DHT22;13371;52.080;5.624;2022-07-29T00:48:35;18.60;79.50
25450;DHT22;13371;52.080;5.624;2022-07-29T00:51:02;18.40;80.20
25450;DHT22;13371;52.080;5.624;2022-07-29T00:53:30;18.30;80.90
25450;DHT22;13371;52.080;5.624;2022-07-29T00:55:56;18.30;81.10
25450;DHT22;13371;52.080;5.624;2022-07-29T00:58:23;18.40;80.30
25450;DHT22;13371;52.080;5.624;2022-07-29T01:00:49;18.30;80.40
25450;DHT22;13371;52.080;5.624;2022-07-29T01:03:14;18.30;81.00
25450;DHT22;13371;52.080;5.624;2022-07-29T01:05:41;18.50;80.30
25450;DHT22;13371;52.080;5.624;2022-07-29T01:08:08;18.40;80.50
25450;DHT22;13371;52.080;5.624;2022-07-29T01:10:37;18.30;80.90
25450;DHT22;13371;52.080;5.624;2022-07-29T01:13:03;18.20;81.60
25450;DHT22;13371;52.080;5.624;2022-07-29T01:15:29;18.40;80.70
25450;DHT22;13371;52.080;5.624;2022-07-29T01:18:16;18.30;81.30
25450;DHT22;13371;52.080;5.624;2022-07-29T01:26:04;18.30;81.20
25450;DHT22;13371;52.080;5.624;2022-07-29T01:28:47;18.00;81.50
25450;DHT22;13371;52.080;5.624;2022-07-29T01:34:05;18.60;80.60
25450;DHT22;13371;52.080;5.624;2022-07-29T01:36:43;18.20;81.00
25450;DHT22;13371;52.080;5.624;2022-07-29T01:39:11;18.50;80.70
25450;DHT22;13371;52.080;5.624;2022-07-29T01:41:49;18.50;80.70
25450;DHT22;13371;52.080;5.624;2022-07-29T01:44:24;18.50;80.30
25450;DHT22;13371;52.080;5.624;2022-07-29T01:46:58;18.40;80.80
25450;DHT22;13371;52.080;5.624;2022-07-29T01:49:28;18.30;80.80
25450;DHT22;13371;52.080;5.624;2022-07-29T01:52:00;18.30;80.80
25450;DHT22;13371;52.080;5.624;2022-07-29T01:57:00;18.50;80.10
25450;DHT22;13371;52.080;5.624;2022-07-29T01:59:29;18.40;80.00
25450;DHT22;13371;52.080;5.624;2022-07-29T02:01:58;18.40;80.20
25450;DHT22;13371;52.080;5.624;2022-07-29T02:04:25;18.20;80.70
25450;DHT22;13371;52.080;5.624;2022-07-29T02:06:54;18.30;80.70
25450;DHT22;13371;52.080;5.624;2022-07-29T02:09:22;18.70;79.70
25450;DHT22;13371;52.080;5.624;2022-07-29T02:11:53;18.70;79.30
25450;DHT22;13371;52.080;5.624;2022-07-29T02:14:20;18.80;79.00
25450;DHT22;13371;52.080;5.624;2022-07-29T02:16:48;18.90;79.00
25450;DHT22;13371;52.080;5.624;2022-07-29T02:19:17;18.70;78.90
25450;DHT22;13371;52.080;5.624;2022-07-29T02:21:45;19.00;78.70
25450;DHT22;13371;52.080;5.624;2022-07-29T02:24:11;19.10;77.70
25450;DHT22;13371;52.080;5.624;2022-07-29T02:26:40;18.90;78.70
25450;DHT22;13371;52.080;5.624;2022-07-29T02:29:06;18.80;78.40
25450;DHT22;13371;52.080;5.624;2022-07-29T02:31:34;18.60;79.60
25450;DHT22;13371;52.080;5.624;2022-07-29T02:34:03;18.70;79.10
25450;DHT22;13371;52.080;5.624;2022-07-29T02:36:31;18.70;78.90
25450;DHT22;13371;52.080;5.624;2022-07-29T02:38:58;18.80;78.90
25450;DHT22;13371;52.080;5.624;2022-07-29T02:41:46;18.90;79.00
25450;DHT22;13371;52.080;5.624;2022-07-29T02:44:17;18.80;78.90
25450;DHT22;13371;52.080;5.624;2022-07-29T02:46:49;18.60;79.60
25450;DHT22;13371;52.080;5.624;2022-07-29T02:51:55;18.70;79.30
25450;DHT22;13371;52.080;5.624;2022-07-29T02:54:46;18.90;78.60
25450;DHT22;13371;52.080;5.624;2022-07-29T02:57:17;18.90;79.00
25450;DHT22;13371;52.080;5.624;2022-07-29T02:59:45;18.90;79.00
25450;DHT22;13371;52.080;5.624;2022-07-29T03:02:14;18.80;79.20
25450;DHT22;13371;52.080;5.624;2022-07-29T03:04:42;18.60;79.30
25450;DHT22;13371;52.080;5.624;2022-07-29T03:07:09;18.80;79.60
25450;DHT22;13371;52.080;5.624;2022-07-29T03:09:36;18.80;79.50
25450;DHT22;13371;52.080;5.624;2022-07-29T03:12:03;18.80;79.00
25450;DHT22;13371;52.080;5.624;2022-07-29T03:14:30;18.70;79.20
25450;DHT22;13371;52.080;5.624;2022-07-29T03:16:57;18.20;80.50
25450;DHT22;13371;52.080;5.624;2022-07-29T03:19:23;18.40;81.10
25450;DHT22;13371;52.080;5.624;2022-07-29T03:21:49;18.20;80.90
25450;DHT22;13371;52.080;5.624;2022-07-29T03:24:26;18.20;81.10
25450;DHT22;13371;52.080;5.624;2022-07-29T03:26:52;17.90;82.10
25450;DHT22;13371;52.080;5.624;2022-07-29T03:29:18;18.00;82.10
25450;DHT22;13371;52.080;5.624;2022-07-29T03:31:43;18.00;81.80
25450;DHT22;13371;52.080;5.624;2022-07-29T03:34:09;18.10;82.00
25450;DHT22;13371;52.080;5.624;2022-07-29T03:36:34;18.00;82.00
25450;DHT22;13371;52.080;5.624;2022-07-29T03:39:00;17.90;82.90
25450;DHT22;13371;52.080;5.624;2022-07-29T03:41:27;18.10;82.90
25450;DHT22;13371;52.080;5.624;2022-07-29T03:43:53;17.90;82.80
25450;DHT22;13371;52.080;5.624;2022-07-29T03:46:22;17.80;83.70
25450;DHT22;13371;52.080;5.624;2022-07-29T03:48:50;17.70;84.00
25450;DHT22;13371;52.080;5.624;2022-07-29T03:51:17;17.30;85.90
25450;DHT22;13371;52.080;5.624;2022-07-29T03:53:43;17.40;85.20
25450;DHT22;13371;52.080;5.624;2022-07-29T03:56:10;17.70;85.40
25450;DHT22;13371;52.080;5.624;2022-07-29T03:58:40;17.80;84.50
25450;DHT22;13371;52.080;5.624;2022-07-29T04:01:06;17.60;84.60
25450;DHT22;13371;52.080;5.624;2022-07-29T04:03:33;17.20;85.50
25450;DHT22;13371;52.080;5.624;2022-07-29T04:06:00;17.20;86.30
25450;DHT22;13371;52.080;5.624;2022-07-29T04:08:26;17.20;85.90
25450;DHT22;13371;52.080;5.624;2022-07-29T04:10:52;17.40;85.10
25450;DHT22;13371;52.080;5.624;2022-07-29T04:13:18;17.50;84.90
25450;DHT22;13371;52.080;5.624;2022-07-29T04:15:44;17.20;85.60
25450;DHT22;13371;52.080;5.624;2022-07-29T04:18:10;17.20;85.90
25450;DHT22;13371;52.080;5.624;2022-07-29T04:20:35;17.20;85.80
25450;DHT22;13371;52.080;5.624;2022-07-29T04:23:01;17.20;86.00
25450;DHT22;13371;52.080;5.624;2022-07-29T04:25:26;17.20;85.50
25450;DHT22;13371;52.080;5.624;2022-07-29T04:27:52;16.90;86.20
25450;DHT22;13371;52.080;5.624;2022-07-29T04:30:26;17.20;86.20
25450;DHT22;13371;52.080;5.624;2022-07-29T04:32:52;17.30;84.80
25450;DHT22;13371;52.080;5.624;2022-07-29T04:35:19;17.60;85.20
25450;DHT22;13371;52.080;5.624;2022-07-29T04:37:44;17.80;83.60
25450;DHT22;13371;52.080;5.624;2022-07-29T04:40:10;18.00;83.70
25450;DHT22;13371;52.080;5.624;2022-07-29T04:42:37;18.20;82.40
25450;DHT22;13371;52.080;5.624;2022-07-29T04:45:03;18.20;81.80
25450;DHT22;13371;52.080;5.624;2022-07-29T04:47:28;18.10;81.50
25450;DHT22;13371;52.080;5.624;2022-07-29T04:49:54;18.30;82.10
25450;DHT22;13371;52.080;5.624;2022-07-29T04:52:20;18.40;81.20
25450;DHT22;13371;52.080;5.624;2022-07-29T04:54:46;18.40;81.10
25450;DHT22;13371;52.080;5.624;2022-07-29T04:57:11;18.30;81.30
25450;DHT22;13371;52.080;5.624;2022-07-29T04:59:37;18.20;82.10
25450;DHT22;13371;52.080;5.624;2022-07-29T05:02:02;17.70;83.30
25450;DHT22;13371;52.080;5.624;2022-07-29T05:04:28;17.30;85.30
25450;DHT22;13371;52.080;5.624;2022-07-29T05:06:53;17.40;84.80
25450;DHT22;13371;52.080;5.624;2022-07-29T05:09:19;17.40;85.00
25450;DHT22;13371;52.080;5.624;2022-07-29T05:11:44;17.70;84.20
25450;DHT22;13371;52.080;5.624;2022-07-29T05:14:10;17.40;84.60
25450;DHT22;13371;52.080;5.624;2022-07-29T05:16:36;17.10;85.50
25450;DHT22;13371;52.080;5.624;2022-07-29T05:19:02;17.40;85.30
25450;DHT22;13371;52.080;5.624;2022-07-29T05:21:27;17.60;84.30
25450;DHT22;13371;52.080;5.624;2022-07-29T05:23:53;17.70;85.00
25450;DHT22;13371;52.080;5.624;2022-07-29T05:26:18;17.90;84.30
25450;DHT22;13371;52.080;5.624;2022-07-29T05:28:44;18.00;83.30
25450;DHT22;13371;52.080;5.624;2022-07-29T05:31:09;18.50;82.50
25450;DHT22;13371;52.080;5.624;2022-07-29T05:33:35;18.20;82.00
25450;DHT22;13371;52.080;5.624;2022-07-29T05:36:00;18.40;81.50
25450;DHT22;13371;52.080;5.624;2022-07-29T05:38:26;18.50;81.70
25450;DHT22;13371;52.080;5.624;2022-07-29T05:40:52;18.30;82.30
25450;DHT22;13371;52.080;5.624;2022-07-29T05:43:17;18.20;83.40
25450;DHT22;13371;52.080;5.624;2022-07-29T05:45:43;18.20;83.30
25450;DHT22;13371;52.080;5.624;2022-07-29T05:48:08;18.20;83.40
25450;DHT22;13371;52.080;5.624;2022-07-29T05:50:34;18.20;83.20
25450;DHT22;13371;52.080;5.624;2022-07-29T05:53:00;18.10;83.00
25450;DHT22;13371;52.080;5.624;2022-07-29T05:55:25;18.20;83.10
25450;DHT22;13371;52.080;5.624;2022-07-29T05:57:52;18.20;83.10
25450;DHT22;13371;52.080;5.624;2022-07-29T06:00:17;17.90;84.10
25450;DHT22;13371;52.080;5.624;2022-07-29T06:02:43;18.10;83.70
25450;DHT22;13371;52.080;5.624;2022-07-29T06:05:08;18.10;84.30
25450;DHT22;13371;52.080;5.624;2022-07-29T06:07:34;18.50;83.60
25450;DHT22;13371;52.080;5.624;2022-07-29T06:10:00;18.60;83.20
25450;DHT22;13371;52.080;5.624;2022-07-29T06:12:25;18.60;82.70
25450;DHT22;13371;52.080;5.624;2022-07-29T06:14:51;18.70;83.40
25450;DHT22;13371;52.080;5.624;2022-07-29T06:17:17;18.80;82.40
25450;DHT22;13371;52.080;5.624;2022-07-29T06:19:42;18.80;82.20
25450;DHT22;13371;52.080;5.624;2022-07-29T06:22:08;18.60;82.90
25450;DHT22;13371;52.080;5.624;2022-07-29T06:24:33;19.00;82.30
25450;DHT22;13371;52.080;5.624;2022-07-29T06:27:02;19.10;81.10
25450;DHT22;13371;52.080;5.624;2022-07-29T06:29:31;19.00;81.70
25450;DHT22;13371;52.080;5.624;2022-07-29T06:31:56;19.10;81.40
25450;DHT22;13371;52.080;5.624;2022-07-29T06:34:22;18.70;82.20
25450;DHT22;13371;52.080;5.624;2022-07-29T06:36:48;18.60;82.60
25450;DHT22;13371;52.080;5.624;2022-07-29T06:39:14;18.50;83.30
25450;DHT22;13371;52.080;5.624;2022-07-29T06:41:40;18.70;82.50
25450;DHT22;13371;52.080;5.624;2022-07-29T06:44:06;18.90;82.20
25450;DHT22;13371;52.080;5.624;2022-07-29T06:46:31;18.80;82.40
25450;DHT22;13371;52.080;5.624;2022-07-29T06:48:57;18.90;82.10
25450;DHT22;13371;52.080;5.624;2022-07-29T06:51:23;19.20;82.30
25450;DHT22;13371;52.080;5.624;2022-07-29T06:53:52;19.40;82.20
25450;DHT22;13371;52.080;5.624;2022-07-29T06:56:18;18.80;81.40
25450;DHT22;13371;52.080;5.624;2022-07-29T06:58:43;19.10;82.80
25450;DHT22;13371;52.080;5.624;2022-07-29T07:01:09;18.80;82.00
25450;DHT22;13371;52.080;5.624;2022-07-29T07:03:34;18.50;82.60
25450;DHT22;13371;52.080;5.624;2022-07-29T07:06:00;18.90;83.40
25450;DHT22;13371;52.080;5.624;2022-07-29T07:08:26;19.00;81.80
25450;DHT22;13371;52.080;5.624;2022-07-29T07:10:52;19.20;81.40
25450;DHT22;13371;52.080;5.624;2022-07-29T07:13:18;19.10;81.60
25450;DHT22;13371;52.080;5.624;2022-07-29T07:15:45;19.00;82.80
25450;DHT22;13371;52.080;5.624;2022-07-29T07:18:13;19.10;82.20
25450;DHT22;13371;52.080;5.624;2022-07-29T07:20:39;18.90;82.70
25450;DHT22;13371;52.080;5.624;2022-07-29T07:23:05;19.20;82.40
25450;DHT22;13371;52.080;5.624;2022-07-29T07:25:30;19.30;81.30
25450;DHT22;13371;52.080;5.624;2022-07-29T07:27:56;19.10;82.00
25450;DHT22;13371;52.080;5.624;2022-07-29T07:30:22;18.90;82.80
25450;DHT22;13371;52.080;5.624;2022-07-29T07:32:48;18.60;83.40
25450;DHT22;13371;52.080;5.624;2022-07-29T07:35:13;18.90;84.60
25450;DHT22;13371;52.080;5.624;2022-07-29T07:37:39;19.10;82.80
25450;DHT22;13371;52.080;5.624;2022-07-29T07:40:07;19.00;82.60
25450;DHT22;13371;52.080;5.624;2022-07-29T07:42:32;19.40;81.70
25450;DHT22;13371;52.080;5.624;2022-07-29T07:44:58;19.60;82.10
25450;DHT22;13371;52.080;5.624;2022-07-29T07:47:24;19.80;82.10
25450;DHT22;13371;52.080;5.624;2022-07-29T07:49:50;19.80;79.80
25450;DHT22;13371;52.080;5.624;2022-07-29T07:52:17;19.60;79.90
25450;DHT22;13371;52.080;5.624;2022-07-29T07:54:43;19.60;80.70
25450;DHT22;13371;52.080;5.624;2022-07-29T07:57:10;20.10;80.60
25450;DHT22;13371;52.080;5.624;2022-07-29T07:59:36;20.20;78.80
25450;DHT22;13371;52.080;5.624;2022-07-29T08:02:02;20.20;78.70
25450;DHT22;13371;52.080;5.624;2022-07-29T08:04:28;20.30;79.80
25450;DHT22;13371;52.080;5.624;2022-07-29T08:06:53;20.60;79.30
25450;DHT22;13371;52.080;5.624;2022-07-29T08:09:20;21.00;79.30
25450;DHT22;13371;52.080;5.624;2022-07-29T08:11:46;21.10;76.60
25450;DHT22;13371;52.080;5.624;2022-07-29T08:14:12;20.70;78.70
25450;DHT22;13371;52.080;5.624;2022-07-29T08:16:39;21.00;77.70
25450;DHT22;13371;52.080;5.624;2022-07-29T08:19:05;21.40;77.30
25450;DHT22;13371;52.080;5.624;2022-07-29T08:21:31;21.30;76.40
25450;DHT22;13371;52.080;5.624;2022-07-29T08:23:56;21.50;75.30
25450;DHT22;13371;52.080;5.624;2022-07-29T08:26:42;22.10;76.90
25450;DHT22;13371;52.080;5.624;2022-07-29T08:29:08;22.40;74.40
25450;DHT22;13371;52.080;5.624;2022-07-29T08:31:35;23.00;73.70
25450;DHT22;13371;52.080;5.624;2022-07-29T08:34:01;23.30;71.60
25450;DHT22;13371;52.080;5.624;2022-07-29T08:36:27;23.30;73.00
25450;DHT22;13371;52.080;5.624;2022-07-29T08:38:53;23.40;69.50
25450;DHT22;13371;52.080;5.624;2022-07-29T08:41:19;23.00;72.50
25450;DHT22;13371;52.080;5.624;2022-07-29T08:43:46;23.10;70.90
25450;DHT22;13371;52.080;5.624;2022-07-29T08:46:11;23.70;71.40
25450;DHT22;13371;52.080;5.624;2022-07-29T08:48:37;24.00;72.10
25450;DHT22;13371;52.080;5.624;2022-07-29T08:51:03;24.20;69.10
25450;DHT22;13371;52.080;5.624;2022-07-29T08:53:30;24.40;67.90
25450;DHT22;13371;52.080;5.624;2022-07-29T08:55:57;24.60;69.80
25450;DHT22;13371;52.080;5.624;2022-07-29T08:58:23;24.70;68.40
25450;DHT22;13371;52.080;5.624;2022-07-29T09:00:52;24.60;67.70
25450;DHT22;13371;52.080;5.624;2022-07-29T09:03:19;25.00;68.70
25450;DHT22;13371;52.080;5.624;2022-07-29T09:05:46;25.30;66.20
25450;DHT22;13371;52.080;5.624;2022-07-29T09:08:13;25.40;65.20
25450;DHT22;13371;52.080;5.624;2022-07-29T09:10:39;25.70;67.30
25450;DHT22;13371;52.080;5.624;2022-07-29T09:13:05;26.10;64.70
25450;DHT22;13371;52.080;5.624;2022-07-29T09:15:31;26.40;65.20
25450;DHT22;13371;52.080;5.624;2022-07-29T09:17:56;26.20;64.60
25450;DHT22;13371;52.080;5.624;2022-07-29T09:20:24;25.80;64.80
25450;DHT22;13371;52.080;5.624;2022-07-29T09:22:51;25.60;64.90
25450;DHT22;13371;52.080;5.624;2022-07-29T09:25:36;25.40;65.10
25450;DHT22;13371;52.080;5.624;2022-07-29T09:28:13;25.50;65.50
25450;DHT22;13371;52.080;5.624;2022-07-29T09:30:56;25.60;64.30
25450;DHT22;13371;52.080;5.624;2022-07-29T09:33:25;25.60;64.50
25450;DHT22;13371;52.080;5.624;2022-07-29T09:36:08;25.50;67.00
25450;DHT22;13371;52.080;5.624;2022-07-29T09:38:35;25.30;68.10
25450;DHT22;13371;52.080;5.624;2022-07-29T09:41:03;25.30;65.90
25450;DHT22;13371;52.080;5.624;2022-07-29T09:43:29;25.40;68.00
25450;DHT22;13371;52.080;5.624;2022-07-29T09:45:55;25.50;65.60
25450;DHT22;13371;52.080;5.624;2022-07-29T09:48:25;25.40;64.70
25450;DHT22;13371;52.080;5.624;2022-07-29T09:50:50;25.60;65.40
25450;DHT22;13371;52.080;5.624;2022-07-29T09:53:37;25.80;64.90
25450;DHT22;13371;52.080;5.624;2022-07-29T09:56:04;25.40;63.90
25450;DHT22;13371;52.080;5.624;2022-07-29T09:58:30;24.70;64.40
25450;DHT22;13371;52.080;5.624;2022-07-29T10:00:59;24.70;65.50
25450;DHT22;13371;52.080;5.624;2022-07-29T10:03:25;24.80;66.90
25450;DHT22;13371;52.080;5.624;2022-07-29T10:06:10;25.00;66.70
25450;DHT22;13371;52.080;5.624;2022-07-29T10:08:37;25.30;65.60
25450;DHT22;13371;52.080;5.624;2022-07-29T10:11:16;25.50;66.30
25450;DHT22;13371;52.080;5.624;2022-07-29T10:13:43;25.50;65.40
25450;DHT22;13371;52.080;5.624;2022-07-29T10:16:09;25.70;64.90
25450;DHT22;13371;52.080;5.624;2022-07-29T10:18:38;25.40;64.50
25450;DHT22;13371;52.080;5.624;2022-07-29T10:21:04;25.50;65.70
25450;DHT22;13371;52.080;5.624;2022-07-29T10:23:30;25.90;67.40
25450;DHT22;13371;52.080;5.624;2022-07-29T10:25:56;26.50;65.70
25450;DHT22;13371;52.080;5.624;2022-07-29T10:28:22;26.90;65.60
25450;DHT22;13371;52.080;5.624;2022-07-29T10:30:50;26.90;65.00
25450;DHT22;13371;52.080;5.624;2022-07-29T10:33:47;27.00;64.70
25450;DHT22;13371;52.080;5.624;2022-07-29T10:39:17;26.90;65.50
25450;DHT22;13371;52.080;5.624;2022-07-29T10:44:42;27.10;63.50
25450;DHT22;13371;52.080;5.624;2022-07-29T10:47:22;27.50;65.50
25450;DHT22;13371;52.080;5.624;2022-07-29T10:49:56;27.50;62.10
25450;DHT22;13371;52.080;5.624;2022-07-29T10:52:22;27.70;62.00
25450;DHT22;13371;52.080;5.624;2022-07-29T10:54:50;28.40;61.30
25450;DHT22;13371;52.080;5.624;2022-07-29T10:57:24;28.20;60.30
25450;DHT22;13371;52.080;5.624;2022-07-29T11:05:08;27.80;62.60
25450;DHT22;13371;52.080;5.624;2022-07-29T11:07:35;27.50;62.60
25450;DHT22;13371;52.080;5.624;2022-07-29T11:15:29;27.30;61.10
25450;DHT22;13371;52.080;5.624;2022-07-29T11:23:01;27.70;59.30
25450;DHT22;13371;52.080;5.624;2022-07-29T11:25:27;27.00;60.30
25450;DHT22;13371;52.080;5.624;2022-07-29T11:27:54;26.50;61.70
25450;DHT22;13371;52.080;5.624;2022-07-29T11:30:51;26.30;63.50
25450;DHT22;13371;52.080;5.624;2022-07-29T11:33:30;26.70;65.10
25450;DHT22;13371;52.080;5.624;2022-07-29T11:36:14;26.70;62.70
25450;DHT22;13371;52.080;5.624;2022-07-29T11:38:40;27.30;63.70
25450;DHT22;13371;52.080;5.624;2022-07-29T11:43:55;27.40;61.10
25450;DHT22;13371;52.080;5.624;2022-07-29T11:49:09;28.00;59.40
25450;DHT22;13371;52.080;5.624;2022-07-29T11:51:37;28.20;60.60
25450;DHT22;13371;52.080;5.624;2022-07-29T11:54:04;27.80;58.60
25450;DHT22;13371;52.080;5.624;2022-07-29T11:56:31;28.50;63.10
25450;DHT22;13371;52.080;5.624;2022-07-29T11:59:07;28.90;60.10
25450;DHT22;13371;52.080;5.624;2022-07-29T12:01:35;29.00;60.30
25450;DHT22;13371;52.080;5.624;2022-07-29T12:04:07;29.10;59.00
25450;DHT22;13371;52.080;5.624;2022-07-29T12:06:34;28.80;57.50
25450;DHT22;13371;52.080;5.624;2022-07-29T12:09:00;28.50;59.20
25450;DHT22;13371;52.080;5.624;2022-07-29T12:11:25;28.60;58.90
25450;DHT22;13371;52.080;5.624;2022-07-29T12:13:51;28.90;59.10
25450;DHT22;13371;52.080;5.624;2022-07-29T12:16:18;28.90;57.40
25450;DHT22;13371;52.080;5.624;2022-07-29T12:18:55;28.70;61.10
25450;DHT22;13371;52.080;5.624;2022-07-29T12:21:21;28.90;60.70
25450;DHT22;13371;52.080;5.624;2022-07-29T12:23:54;28.90;62.10
25450;DHT22;13371;52.080;5.624;2022-07-29T12:26:20;29.10;63.20
25450;DHT22;13371;52.080;5.624;2022-07-29T12:28:46;28.90;59.50
25450;DHT22;13371;52.080;5.624;2022-07-29T12:31:15;29.30;58.50
25450;DHT22;13371;52.080;5.624;2022-07-29T12:33:41;29.00;58.20
25450;DHT22;13371;52.080;5.624;2022-07-29T12:36:07;29.00;57.90
25450;DHT22;13371;52.080;5.624;2022-07-29T12:38:34;29.20;58.80
25450;DHT22;13371;52.080;5.624;2022-07-29T12:41:00;28.90;62.20
25450;DHT22;13371;52.080;5.624;2022-07-29T12:43:26;29.10;59.70
25450;DHT22;13371;52.080;5.624;2022-07-29T12:45:54;28.50;58.20
25450;DHT22;13371;52.080;5.624;2022-07-29T12:48:36;28.20;58.30
25450;DHT22;13371;52.080;5.624;2022-07-29T12:51:04;28.50;61.70
25450;DHT22;13371;52.080;5.624;2022-07-29T12:53:31;28.90;59.70
25450;DHT22;13371;52.080;5.624;2022-07-29T12:55:58;29.20;59.40
25450;DHT22;13371;52.080;5.624;2022-07-29T13:01:22;29.20;59.80
25450;DHT22;13371;52.080;5.624;2022-07-29T13:03:51;29.30;60.90
25450;DHT22;13371;52.080;5.624;2022-07-29T13:06:47;29.40;59.30
25450;DHT22;13371;52.080;5.624;2022-07-29T13:09:18;29.70;60.20
25450;DHT22;13371;52.080;5.624;2022-07-29T13:11:45;29.50;60.90
25450;DHT22;13371;52.080;5.624;2022-07-29T13:14:34;29.40;59.30
25450;DHT22;13371;52.080;5.624;2022-07-29T13:17:07;28.90;59.60
25450;DHT22;13371;52.080;5.624;2022-07-29T13:22:11;29.30;60.60
25450;DHT22;13371;52.080;5.624;2022-07-29T13:27:19;29.50;62.30
25450;DHT22;13371;52.080;5.624;2022-07-29T13:29:46;29.50;58.20
25450;DHT22;13371;52.080;5.624;2022-07-29T13:32:12;29.70;57.60
25450;DHT22;13371;52.080;5.624;2022-07-29T13:34:38;29.90;60.80
25450;DHT22;13371;52.080;5.624;2022-07-29T13:37:03;30.30;58.50
25450;DHT22;13371;52.080;5.624;2022-07-29T13:39:29;30.50;59.20
25450;DHT22;13371;52.080;5.624;2022-07-29T13:41:55;30.70;59.00
25450;DHT22;13371;52.080;5.624;2022-07-29T13:44:21;30.70;57.80
25450;DHT22;13371;52.080;5.624;2022-07-29T13:46:46;30.70;57.20
25450;DHT22;13371;52.080;5.624;2022-07-29T13:49:12;30.80;56.90
25450;DHT22;13371;52.080;5.624;2022-07-29T13:51:38;30.30;55.60
25450;DHT22;13371;52.080;5.624;2022-07-29T13:54:04;30.60;57.70
25450;DHT22;13371;52.080;5.624;2022-07-29T13:56:30;30.70;56.90
25450;DHT22;13371;52.080;5.624;2022-07-29T13:58:55;30.90;57.30
25450;DHT22;13371;52.080;5.624;2022-07-29T14:01:21;31.00;56.70
25450;DHT22;13371;52.080;5.624;2022-07-29T14:03:47;31.10;55.40
25450;DHT22;13371;52.080;5.624;2022-07-29T14:06:12;31.30;56.60
25450;DHT22;13371;52.080;5.624;2022-07-29T14:08:38;31.10;53.30
25450;DHT22;13371;52.080;5.624;2022-07-29T14:11:04;30.80;56.40
25450;DHT22;13371;52.080;5.624;2022-07-29T14:13:29;31.10;55.10
25450;DHT22;13371;52.080;5.624;2022-07-29T14:15:55;31.20;55.60
25450;DHT22;13371;52.080;5.624;2022-07-29T14:18:21;30.90;56.90
25450;DHT22;13371;52.080;5.624;2022-07-29T14:20:46;31.10;54.70
25450;DHT22;13371;52.080;5.624;2022-07-29T14:23:12;30.00;54.00
25450;DHT22;13371;52.080;5.624;2022-07-29T14:25:37;30.30;56.00
25450;DHT22;13371;52.080;5.624;2022-07-29T14:28:05;30.50;55.80
25450;DHT22;13371;52.080;5.624;2022-07-29T14:30:31;30.60;55.30
25450;DHT22;13371;52.080;5.624;2022-07-29T14:32:56;30.70;54.90
25450;DHT22;13371;52.080;5.624;2022-07-29T14:35:22;30.70;52.90
25450;DHT22;13371;52.080;5.624;2022-07-29T14:37:48;30.80;54.80
25450;DHT22;13371;52.080;5.624;2022-07-29T14:40:13;30.70;53.20
25450;DHT22;13371;52.080;5.624;2022-07-29T14:42:39;30.90;54.70
25450;DHT22;13371;52.080;5.624;2022-07-29T14:45:06;30.90;54.20
25450;DHT22;13371;52.080;5.624;2022-07-29T14:47:32;31.00;55.00
25450;DHT22;13371;52.080;5.624;2022-07-29T14:49:57;31.20;54.50
25450;DHT22;13371;52.080;5.624;2022-07-29T14:52:23;31.00;54.30
25450;DHT22;13371;52.080;5.624;2022-07-29T14:54:49;30.70;52.30
25450;DHT22;13371;52.080;5.624;2022-07-29T14:57:14;30.40;54.60
25450;DHT22;13371;52.080;5.624;2022-07-29T14:59:40;30.60;53.90
25450;DHT22;13371;52.080;5.624;2022-07-29T15:02:05;31.00;54.20
25450;DHT22;13371;52.080;5.624;2022-07-29T15:04:31;30.90;52.70
25450;DHT22;13371;52.080;5.624;2022-07-29T15:06:56;31.10;53.00
25450;DHT22;13371;52.080;5.624;2022-07-29T15:09:23;31.20;51.30
25450;DHT22;13371;52.080;5.624;2022-07-29T15:11:48;31.30;52.80
25450;DHT22;13371;52.080;5.624;2022-07-29T15:14:14;31.30;51.70
25450;DHT22;13371;52.080;5.624;2022-07-29T15:16:39;31.00;51.40
25450;DHT22;13371;52.080;5.624;2022-07-29T15:19:08;30.60;51.20
25450;DHT22;13371;52.080;5.624;2022-07-29T15:21:33;30.90;52.70
25450;DHT22;13371;52.080;5.624;2022-07-29T15:23:59;31.30;53.00
25450;DHT22;13371;52.080;5.624;2022-07-29T15:26:25;30.80;50.90
25450;DHT22;13371;52.080;5.624;2022-07-29T15:28:50;30.70;50.80
25450;DHT22;13371;52.080;5.624;2022-07-29T15:31:16;30.80;52.70
25450;DHT22;13371;52.080;5.624;2022-07-29T15:33:44;30.90;52.60
25450;DHT22;13371;52.080;5.624;2022-07-29T15:36:09;31.20;52.30
25450;DHT22;13371;52.080;5.624;2022-07-29T15:38:36;31.10;52.20
25450;DHT22;13371;52.080;5.624;2022-07-29T15:41:02;31.10;53.00
25450;DHT22;13371;52.080;5.624;2022-07-29T15:43:28;31.00;52.30
25450;DHT22;13371;52.080;5.624;2022-07-29T15:45:54;30.90;53.30
25450;DHT22;13371;52.080;5.624;2022-07-29T15:48:38;30.90;52.30
25450;DHT22;13371;52.080;5.624;2022-07-29T15:51:04;31.00;53.40
25450;DHT22;13371;52.080;5.624;2022-07-29T15:53:30;30.90;52.60
25450;DHT22;13371;52.080;5.624;2022-07-29T15:55:55;31.10;54.10
25450;DHT22;13371;52.080;5.624;2022-07-29T15:58:21;31.00;52.90
25450;DHT22;13371;52.080;5.624;2022-07-29T16:00:47;30.90;53.30
25450;DHT22;13371;52.080;5.624;2022-07-29T16:03:12;31.00;54.40
25450;DHT22;13371;52.080;5.624;2022-07-29T16:05:38;31.10;54.30
25450;DHT22;13371;52.080;5.624;2022-07-29T16:08:04;30.90;54.70
25450;DHT22;13371;52.080;5.624;2022-07-29T16:10:29;30.60;54.60
25450;DHT22;13371;52.080;5.624;2022-07-29T16:12:55;30.50;55.90
25450;DHT22;13371;52.080;5.624;2022-07-29T16:15:21;30.70;55.30
25450;DHT22;13371;52.080;5.624;2022-07-29T16:17:46;30.70;55.70
25450;DHT22;13371;52.080;5.624;2022-07-29T16:20:14;30.60;55.10
25450;DHT22;13371;52.080;5.624;2022-07-29T16:22:40;30.20;56.10